Terminal Aerodrome Forecast
Issued by NWS

Home | Current Version | Previous Version | Text Only | Print | Product List | Glossary On
Versions: 1 2 3 4 5 6 7 8 9 10 11 12 13 14 15
000
FTUS46 KSEW 230800 AAA
TAFBLI
TAF AMD
KBLI 230820Z 2308/2406 15012G22KT P6SM VCSH SCT018 OVC030
      TEMPO 2308/2311 -SHRA BKN018 OVC030
     FM231100 16011KT P6SM VCSH SCT020 BKN040
     FM232100 16008KT P6SM BKN050
     FM240300 16008KT P6SM -RA OVC030=

USA.gov is the U.S. government's official web portal to all federal, state and local government web resources and services.